sensor_id;sensor_type;location;lat;lon;timestamp;pressure;altitude;pressure_sealevel;temperature
81657;BMP280;71067;51.482;-0.580;2023-12-14T00:00:43;101506.63;;;7.15
81657;BMP280;71067;51.482;-0.580;2023-12-14T00:03:09;101512.44;;;7.17
81657;BMP280;71067;51.482;-0.580;2023-12-14T00:05:34;101519.34;;;7.16
81657;BMP280;71067;51.482;-0.580;2023-12-14T00:08:03;101516.75;;;7.16
81657;BMP280;71067;51.482;-0.580;2023-12-14T00:10:29;101513.53;;;7.14
81657;BMP280;71067;51.482;-0.580;2023-12-14T00:12:54;101518.66;;;7.14
81657;BMP280;71067;51.482;-0.580;2023-12-14T00:15:20;101527.31;;;7.13
81657;BMP280;71067;51.482;-0.580;2023-12-14T00:17:49;101531.53;;;7.14
81657;BMP280;71067;51.482;-0.580;2023-12-14T00:20:14;101527.06;;;7.16
81657;BMP280;71067;51.482;-0.580;2023-12-14T00:22:40;101539.34;;;7.13
81657;BMP280;71067;51.482;-0.580;2023-12-14T00:25:05;101553.50;;;7.07
81657;BMP280;71067;51.482;-0.580;2023-12-14T00:27:31;101546.59;;;7.08
81657;BMP280;71067;51.482;-0.580;2023-12-14T00:29:56;101548.94;;;7.11
81657;BMP280;71067;51.482;-0.580;2023-12-14T00:32:21;101558.22;;;7.13
81657;BMP280;71067;51.482;-0.580;2023-12-14T00:34:47;101560.28;;;7.08
81657;BMP280;71067;51.482;-0.580;2023-12-14T00:37:12;101562.75;;;7.10
81657;BMP280;71067;51.482;-0.580;2023-12-14T00:39:37;101561.00;;;7.10
81657;BMP280;71067;51.482;-0.580;2023-12-14T00:42:03;101561.94;;;7.09
81657;BMP280;71067;51.482;-0.580;2023-12-14T00:44:28;101564.63;;;7.08
81657;BMP280;71067;51.482;-0.580;2023-12-14T00:46:53;101576.41;;;6.99
81657;BMP280;71067;51.482;-0.580;2023-12-14T00:49:19;101573.63;;;7.02
81657;BMP280;71067;51.482;-0.580;2023-12-14T00:51:44;101581.47;;;7.01
81657;BMP280;71067;51.482;-0.580;2023-12-14T00:54:10;101578.19;;;6.99
81657;BMP280;71067;51.482;-0.580;2023-12-14T00:56:35;101590.09;;;7.00
81657;BMP280;71067;51.482;-0.580;2023-12-14T00:59:01;101583.34;;;6.99
81657;BMP280;71067;51.482;-0.580;2023-12-14T01:01:26;101573.13;;;6.97
81657;BMP280;71067;51.482;-0.580;2023-12-14T01:03:51;101584.38;;;6.96
81657;BMP280;71067;51.482;-0.580;2023-12-14T01:06:17;101592.31;;;6.93
81657;BMP280;71067;51.482;-0.580;2023-12-14T01:08:42;101596.50;;;6.94
81657;BMP280;71067;51.482;-0.580;2023-12-14T01:11:07;101596.50;;;6.94
81657;BMP280;71067;51.482;-0.580;2023-12-14T01:13:33;101599.06;;;6.94
81657;BMP280;71067;51.482;-0.580;2023-12-14T01:15:58;101600.72;;;6.95
81657;BMP280;71067;51.482;-0.580;2023-12-14T01:18:24;101607.75;;;6.93
81657;BMP280;71067;51.482;-0.580;2023-12-14T01:20:50;101600.94;;;6.92
81657;BMP280;71067;51.482;-0.580;2023-12-14T01:23:15;101611.59;;;6.87
81657;BMP280;71067;51.482;-0.580;2023-12-14T01:25:41;101604.59;;;6.89
81657;BMP280;71067;51.482;-0.580;2023-12-14T01:28:06;101606.44;;;6.87
81657;BMP280;71067;51.482;-0.580;2023-12-14T01:30:31;101592.97;;;6.84
81657;BMP280;71067;51.482;-0.580;2023-12-14T01:32:57;101615.84;;;6.88
81657;BMP280;71067;51.482;-0.580;2023-12-14T01:35:22;101599.78;;;6.85
81657;BMP280;71067;51.482;-0.580;2023-12-14T01:37:47;101608.09;;;6.88
81657;BMP280;71067;51.482;-0.580;2023-12-14T01:40:13;101621.78;;;6.89
81657;BMP280;71067;51.482;-0.580;2023-12-14T01:42:38;101601.84;;;6.80
81657;BMP280;71067;51.482;-0.580;2023-12-14T01:45:05;101600.59;;;6.85
81657;BMP280;71067;51.482;-0.580;2023-12-14T01:47:30;101626.91;;;6.89
81657;BMP280;71067;51.482;-0.580;2023-12-14T01:49:55;101611.59;;;6.87
81657;BMP280;71067;51.482;-0.580;2023-12-14T01:52:21;101605.34;;;6.79
81657;BMP280;71067;51.482;-0.580;2023-12-14T01:54:46;101619.66;;;6.83
81657;BMP280;71067;51.482;-0.580;2023-12-14T01:57:11;101619.84;;;6.80
81657;BMP280;71067;51.482;-0.580;2023-12-14T01:59:37;101630.16;;;6.80
81657;BMP280;71067;51.482;-0.580;2023-12-14T02:02:02;101631.31;;;6.76
81657;BMP280;71067;51.482;-0.580;2023-12-14T02:04:30;101637.81;;;6.69
81657;BMP280;71067;51.482;-0.580;2023-12-14T02:06:56;101639.19;;;6.62
81657;BMP280;71067;51.482;-0.580;2023-12-14T02:09:21;101645.47;;;6.58
81657;BMP280;71067;51.482;-0.580;2023-12-14T02:11:46;101655.38;;;6.51
81657;BMP280;71067;51.482;-0.580;2023-12-14T02:14:12;101654.06;;;6.46
81657;BMP280;71067;51.482;-0.580;2023-12-14T02:16:38;101647.44;;;6.42
81657;BMP280;71067;51.482;-0.580;2023-12-14T02:19:04;101656.34;;;6.38
81657;BMP280;71067;51.482;-0.580;2023-12-14T02:21:30;101676.41;;;6.33
81657;BMP280;71067;51.482;-0.580;2023-12-14T02:23:55;101679.16;;;6.30
81657;BMP280;71067;51.482;-0.580;2023-12-14T02:26:21;101688.06;;;6.26
81657;BMP280;71067;51.482;-0.580;2023-12-14T02:28:46;101699.66;;;6.19
81657;BMP280;71067;51.482;-0.580;2023-12-14T02:31:12;101693.97;;;6.13
81657;BMP280;71067;51.482;-0.580;2023-12-14T02:33:37;101700.50;;;6.06
81657;BMP280;71067;51.482;-0.580;2023-12-14T02:36:02;101691.75;;;5.96
81657;BMP280;71067;51.482;-0.580;2023-12-14T02:38:29;101705.63;;;5.94
81657;BMP280;71067;51.482;-0.580;2023-12-14T02:40:54;101707.38;;;5.93
81657;BMP280;71067;51.482;-0.580;2023-12-14T02:43:19;101709.31;;;5.90
81657;BMP280;71067;51.482;-0.580;2023-12-14T02:45:45;101713.91;;;5.85
81657;BMP280;71067;51.482;-0.580;2023-12-14T02:48:11;101717.72;;;5.79
81657;BMP280;71067;51.482;-0.580;2023-12-14T02:50:37;101713.72;;;5.75
81657;BMP280;71067;51.482;-0.580;2023-12-14T02:53:02;101695.22;;;5.70
81657;BMP280;71067;51.482;-0.580;2023-12-14T02:55:27;101695.03;;;5.73
81657;BMP280;71067;51.482;-0.580;2023-12-14T02:57:53;101684.75;;;5.73
81657;BMP280;71067;51.482;-0.580;2023-12-14T03:00:18;101683.31;;;5.69
81657;BMP280;71067;51.482;-0.580;2023-12-14T03:02:44;101672.16;;;5.56
81657;BMP280;71067;51.482;-0.580;2023-12-14T03:05:09;101681.72;;;5.54
81657;BMP280;71067;51.482;-0.580;2023-12-14T03:07:35;101686.16;;;5.52
81657;BMP280;71067;51.482;-0.580;2023-12-14T03:10:00;101689.84;;;5.48
81657;BMP280;71067;51.482;-0.580;2023-12-14T03:12:25;101680.44;;;5.34
81657;BMP280;71067;51.482;-0.580;2023-12-14T03:14:51;101682.41;;;5.31
81657;BMP280;71067;51.482;-0.580;2023-12-14T03:17:16;101674.06;;;5.27
81657;BMP280;71067;51.482;-0.580;2023-12-14T03:19:42;101686.41;;;5.35
81657;BMP280;71067;51.482;-0.580;2023-12-14T03:22:08;101681.88;;;5.26
81657;BMP280;71067;51.482;-0.580;2023-12-14T03:24:39;101674.88;;;5.15
81657;BMP280;71067;51.482;-0.580;2023-12-14T03:27:05;101670.09;;;5.09
81657;BMP280;71067;51.482;-0.580;2023-12-14T03:29:33;101691.34;;;5.11
81657;BMP280;71067;51.482;-0.580;2023-12-14T03:32:00;101677.41;;;5.03
81657;BMP280;71067;51.482;-0.580;2023-12-14T03:34:25;101664.81;;;4.98
81657;BMP280;71067;51.482;-0.580;2023-12-14T03:36:52;101655.88;;;4.91
81657;BMP280;71067;51.482;-0.580;2023-12-14T03:39:18;101667.50;;;4.97
81657;BMP280;71067;51.482;-0.580;2023-12-14T03:41:44;101662.66;;;4.92
81657;BMP280;71067;51.482;-0.580;2023-12-14T03:44:09;101675.28;;;4.95
81657;BMP280;71067;51.482;-0.580;2023-12-14T03:46:35;101676.38;;;4.91
81657;BMP280;71067;51.482;-0.580;2023-12-14T03:49:03;101674.94;;;4.87
81657;BMP280;71067;51.482;-0.580;2023-12-14T03:51:29;101686.38;;;4.96
81657;BMP280;71067;51.482;-0.580;2023-12-14T03:53:54;101713.03;;;4.93
81657;BMP280;71067;51.482;-0.580;2023-12-14T03:56:20;101710.47;;;4.93
81657;BMP280;71067;51.482;-0.580;2023-12-14T03:58:45;101715.91;;;4.89
81657;BMP280;71067;51.482;-0.580;2023-12-14T04:01:17;101717.75;;;4.87
81657;BMP280;71067;51.482;-0.580;2023-12-14T04:03:43;101716.09;;;4.86
81657;BMP280;71067;51.482;-0.580;2023-12-14T04:06:08;101712.63;;;4.87
81657;BMP280;71067;51.482;-0.580;2023-12-14T04:08:34;101724.50;;;4.88
81657;BMP280;71067;51.482;-0.580;2023-12-14T04:10:59;101718.53;;;4.87
81657;BMP280;71067;51.482;-0.580;2023-12-14T04:13:24;101720.56;;;4.82
81657;BMP280;71067;51.482;-0.580;2023-12-14T04:15:49;101725.50;;;4.85
81657;BMP280;71067;51.482;-0.580;2023-12-14T04:18:15;101731.47;;;4.86
81657;BMP280;71067;51.482;-0.580;2023-12-14T04:20:40;101736.59;;;4.86
81657;BMP280;71067;51.482;-0.580;2023-12-14T04:23:06;101733.94;;;4.87
81657;BMP280;71067;51.482;-0.580;2023-12-14T04:25:31;101744.13;;;4.89
81657;BMP280;71067;51.482;-0.580;2023-12-14T04:27:56;101738.06;;;4.90
81657;BMP280;71067;51.482;-0.580;2023-12-14T04:30:22;101747.22;;;4.94
81657;BMP280;71067;51.482;-0.580;2023-12-14T04:32:49;101751.50;;;4.93
81657;BMP280;71067;51.482;-0.580;2023-12-14T04:35:14;101741.16;;;4.95
81657;BMP280;71067;51.482;-0.580;2023-12-14T04:37:39;101761.69;;;4.95
81657;BMP280;71067;51.482;-0.580;2023-12-14T04:40:05;101760.75;;;4.96
81657;BMP280;71067;51.482;-0.580;2023-12-14T04:42:31;101742.75;;;4.83
81657;BMP280;71067;51.482;-0.580;2023-12-14T04:44:56;101751.22;;;4.98
81657;BMP280;71067;51.482;-0.580;2023-12-14T04:47:21;101759.69;;;5.00
81657;BMP280;71067;51.482;-0.580;2023-12-14T04:49:47;101749.78;;;4.94
81657;BMP280;71067;51.482;-0.580;2023-12-14T04:52:12;101753.53;;;5.02
81657;BMP280;71067;51.482;-0.580;2023-12-14T04:54:38;101763.78;;;5.02
81657;BMP280;71067;51.482;-0.580;2023-12-14T04:57:07;101770.94;;;4.97
81657;BMP280;71067;51.482;-0.580;2023-12-14T04:59:32;101767.38;;;5.00
81657;BMP280;71067;51.482;-0.580;2023-12-14T05:01:57;101778.19;;;5.05
81657;BMP280;71067;51.482;-0.580;2023-12-14T05:04:23;101789.88;;;5.09
81657;BMP280;71067;51.482;-0.580;2023-12-14T05:06:48;101795.31;;;5.04
81657;BMP280;71067;51.482;-0.580;2023-12-14T05:09:13;101796.66;;;5.10
81657;BMP280;71067;51.482;-0.580;2023-12-14T05:11:39;101795.94;;;5.08
81657;BMP280;71067;51.482;-0.580;2023-12-14T05:14:05;101800.13;;;5.09
81657;BMP280;71067;51.482;-0.580;2023-12-14T05:16:30;101795.94;;;5.08
81657;BMP280;71067;51.482;-0.580;2023-12-14T05:18:56;101794.66;;;5.01
81657;BMP280;71067;51.482;-0.580;2023-12-14T05:21:22;101812.22;;;5.07
81657;BMP280;71067;51.482;-0.580;2023-12-14T05:23:48;101810.56;;;5.06
81657;BMP280;71067;51.482;-0.580;2023-12-14T05:26:13;101808.13;;;5.04
81657;BMP280;71067;51.482;-0.580;2023-12-14T05:28:38;101819.41;;;5.02
81657;BMP280;71067;51.482;-0.580;2023-12-14T05:31:04;101813.63;;;4.98
81657;BMP280;71067;51.482;-0.580;2023-12-14T05:33:30;101817.38;;;4.93
81657;BMP280;71067;51.482;-0.580;2023-12-14T05:35:56;101812.16;;;4.94
81657;BMP280;71067;51.482;-0.580;2023-12-14T05:38:22;101811.72;;;4.88
81657;BMP280;71067;51.482;-0.580;2023-12-14T05:40:47;101810.44;;;4.81
81657;BMP280;71067;51.482;-0.580;2023-12-14T05:43:14;101796.41;;;4.72
81657;BMP280;71067;51.482;-0.580;2023-12-14T05:45:39;101819.59;;;4.85
81657;BMP280;71067;51.482;-0.580;2023-12-14T05:48:06;101814.84;;;4.79
81657;BMP280;71067;51.482;-0.580;2023-12-14T05:50:32;101813.09;;;4.79
81657;BMP280;71067;51.482;-0.580;2023-12-14T05:52:57;101807.13;;;4.79
81657;BMP280;71067;51.482;-0.580;2023-12-14T05:55:22;101813.00;;;4.81
81657;BMP280;71067;51.482;-0.580;2023-12-14T05:57:48;101822.16;;;4.85
81657;BMP280;71067;51.482;-0.580;2023-12-14T06:00:14;101827.09;;;4.88
81657;BMP280;71067;51.482;-0.580;2023-12-14T06:02:39;101831.50;;;4.86
81657;BMP280;71067;51.482;-0.580;2023-12-14T06:05:06;101834.59;;;4.91
81657;BMP280;71067;51.482;-0.580;2023-12-14T06:07:32;101846.41;;;4.93
81657;BMP280;71067;51.482;-0.580;2023-12-14T06:09:57;101843.13;;;4.91
81657;BMP280;71067;51.482;-0.580;2023-12-14T06:12:23;101836.25;;;4.92
81657;BMP280;71067;51.482;-0.580;2023-12-14T06:14:48;101842.84;;;4.96
81657;BMP280;71067;51.482;-0.580;2023-12-14T06:17:15;101835.63;;;5.02
81657;BMP280;71067;51.482;-0.580;2023-12-14T06:19:40;101838.44;;;4.98
81657;BMP280;71067;51.482;-0.580;2023-12-14T06:22:05;101845.78;;;5.04
81657;BMP280;71067;51.482;-0.580;2023-12-14T06:24:31;101847.53;;;5.03
81657;BMP280;71067;51.482;-0.580;2023-12-14T06:26:56;101837.19;;;5.05
81657;BMP280;71067;51.482;-0.580;2023-12-14T06:29:21;101849.06;;;5.06
81657;BMP280;71067;51.482;-0.580;2023-12-14T06:31:47;101850.38;;;5.13
81657;BMP280;71067;51.482;-0.580;2023-12-14T06:34:12;101861.53;;;5.12
81657;BMP280;71067;51.482;-0.580;2023-12-14T06:36:42;101867.41;;;5.14
81657;BMP280;71067;51.482;-0.580;2023-12-14T06:39:07;101863.19;;;5.13
81657;BMP280;71067;51.482;-0.580;2023-12-14T06:41:33;101857.31;;;5.11
81657;BMP280;71067;51.482;-0.580;2023-12-14T06:43:59;101868.16;;;5.16
81657;BMP280;71067;51.482;-0.580;2023-12-14T06:46:25;101871.91;;;5.10
81657;BMP280;71067;51.482;-0.580;2023-12-14T06:48:50;101877.84;;;5.11
81657;BMP280;71067;51.482;-0.580;2023-12-14T06:51:16;101877.28;;;5.06
81657;BMP280;71067;51.482;-0.580;2023-12-14T06:53:42;101871.97;;;5.09
81657;BMP280;71067;51.482;-0.580;2023-12-14T06:56:09;101876.28;;;5.08
81657;BMP280;71067;51.482;-0.580;2023-12-14T06:58:43;101878.03;;;5.08
81657;BMP280;71067;51.482;-0.580;2023-12-14T07:01:13;101882.06;;;5.12
81657;BMP280;71067;51.482;-0.580;2023-12-14T07:03:39;101892.34;;;5.12
81657;BMP280;71067;51.482;-0.580;2023-12-14T07:06:05;101889.03;;;5.10
81657;BMP280;71067;51.482;-0.580;2023-12-14T07:08:30;101879.50;;;5.12
81657;BMP280;71067;51.482;-0.580;2023-12-14T07:10:55;101885.38;;;5.14
81657;BMP280;71067;51.482;-0.580;2023-12-14T07:13:21;101888.88;;;5.13
81657;BMP280;71067;51.482;-0.580;2023-12-14T07:15:46;101884.34;;;5.16
81657;BMP280;71067;51.482;-0.580;2023-12-14T07:18:11;101889.31;;;5.19
81657;BMP280;71067;51.482;-0.580;2023-12-14T07:20:37;101889.94;;;5.23
81657;BMP280;71067;51.482;-0.580;2023-12-14T07:23:02;101891.59;;;5.24
81657;BMP280;71067;51.482;-0.580;2023-12-14T07:25:27;101899.94;;;5.27
81657;BMP280;71067;51.482;-0.580;2023-12-14T07:27:53;101900.84;;;5.26
81657;BMP280;71067;51.482;-0.580;2023-12-14T07:30:18;101905.56;;;5.34
81657;BMP280;71067;51.482;-0.580;2023-12-14T07:32:43;101894.28;;;5.36
81657;BMP280;71067;51.482;-0.580;2023-12-14T07:35:09;101902.56;;;5.40
81657;BMP280;71067;51.482;-0.580;2023-12-14T07:37:35;101885.75;;;5.36
81657;BMP280;71067;51.482;-0.580;2023-12-14T07:40:00;101889.56;;;5.43
81657;BMP280;71067;51.482;-0.580;2023-12-14T07:42:26;101888.09;;;5.39
81657;BMP280;71067;51.482;-0.580;2023-12-14T07:44:51;101889.66;;;5.42
81657;BMP280;71067;51.482;-0.580;2023-12-14T07:47:17;101900.00;;;5.40
81657;BMP280;71067;51.482;-0.580;2023-12-14T07:49:42;101904.06;;;5.44
81657;BMP280;71067;51.482;-0.580;2023-12-14T07:52:10;101903.88;;;5.47
81657;BMP280;71067;51.482;-0.580;2023-12-14T07:54:36;101899.81;;;5.43
81657;BMP280;71067;51.482;-0.580;2023-12-14T07:57:01;101900.19;;;5.51
81657;BMP280;71067;51.482;-0.580;2023-12-14T07:59:28;101909.34;;;5.55
81657;BMP280;71067;51.482;-0.580;2023-12-14T08:01:55;101912.47;;;5.60
81657;BMP280;71067;51.482;-0.580;2023-12-14T08:04:20;101912.72;;;5.56
81657;BMP280;71067;51.482;-0.580;2023-12-14T08:06:45;101921.25;;;5.56
81657;BMP280;71067;51.482;-0.580;2023-12-14T08:09:11;101924.56;;;5.58
81657;BMP280;71067;51.482;-0.580;2023-12-14T08:11:36;101913.38;;;5.59
81657;BMP280;71067;51.482;-0.580;2023-12-14T08:14:01;101922.75;;;5.60
81657;BMP280;71067;51.482;-0.580;2023-12-14T08:16:30;101918.63;;;5.58
81657;BMP280;71067;51.482;-0.580;2023-12-14T08:18:59;101925.75;;;5.67
81657;BMP280;71067;51.482;-0.580;2023-12-14T08:21:24;101914.66;;;5.66
81657;BMP280;71067;51.482;-0.580;2023-12-14T08:23:49;101922.38;;;5.66
81657;BMP280;71067;51.482;-0.580;2023-12-14T08:26:15;101902.38;;;5.57
81657;BMP280;71067;51.482;-0.580;2023-12-14T08:28:40;101916.50;;;5.64
81657;BMP280;71067;51.482;-0.580;2023-12-14T08:31:05;101914.47;;;5.69
81657;BMP280;71067;51.482;-0.580;2023-12-14T08:33:31;101924.94;;;5.66
81657;BMP280;71067;51.482;-0.580;2023-12-14T08:35:57;101928.03;;;5.71
81657;BMP280;71067;51.482;-0.580;2023-12-14T08:38:25;101932.91;;;5.76
81657;BMP280;71067;51.482;-0.580;2023-12-14T08:40:50;101930.59;;;5.71
81657;BMP280;71067;51.482;-0.580;2023-12-14T08:43:16;101934.47;;;5.78
81657;BMP280;71067;51.482;-0.580;2023-12-14T08:45:41;101921.06;;;5.73
81657;BMP280;71067;51.482;-0.580;2023-12-14T08:48:07;101933.44;;;5.81
81657;BMP280;71067;51.482;-0.580;2023-12-14T08:50:32;101945.47;;;5.80
81657;BMP280;71067;51.482;-0.580;2023-12-14T08:52:57;101931.34;;;5.73
81657;BMP280;71067;51.482;-0.580;2023-12-14T08:55:27;101934.47;;;5.78
81657;BMP280;71067;51.482;-0.580;2023-12-14T08:57:53;101940.50;;;5.77
81657;BMP280;71067;51.482;-0.580;2023-12-14T09:00:18;101945.88;;;5.87
81657;BMP280;71067;51.482;-0.580;2023-12-14T09:02:44;101949.47;;;5.84
81657;BMP280;71067;51.482;-0.580;2023-12-14T09:05:12;101961.22;;;5.88
81657;BMP280;71067;51.482;-0.580;2023-12-14T09:07:37;101957.81;;;5.88
81657;BMP280;71067;51.482;-0.580;2023-12-14T09:10:03;101950.22;;;5.86
81657;BMP280;71067;51.482;-0.580;2023-12-14T09:12:28;101953.94;;;5.95
81657;BMP280;71067;51.482;-0.580;2023-12-14T09:14:53;101951.91;;;6.00
81657;BMP280;71067;51.482;-0.580;2023-12-14T09:17:19;101960.25;;;6.03
81657;BMP280;71067;51.482;-0.580;2023-12-14T09:19:44;101964.28;;;6.07
81657;BMP280;71067;51.482;-0.580;2023-12-14T09:22:09;101970.19;;;6.09
81657;BMP280;71067;51.482;-0.580;2023-12-14T09:24:35;101959.69;;;6.12
81657;BMP280;71067;51.482;-0.580;2023-12-14T09:27:03;101964.53;;;6.17
81657;BMP280;71067;51.482;-0.580;2023-12-14T09:29:29;101970.50;;;6.18
81657;BMP280;71067;51.482;-0.580;2023-12-14T09:31:54;101965.63;;;6.13
81657;BMP280;71067;51.482;-0.580;2023-12-14T09:34:19;101979.13;;;6.17
81657;BMP280;71067;51.482;-0.580;2023-12-14T09:36:46;101968.19;;;6.13
81657;BMP280;71067;51.482;-0.580;2023-12-14T09:39:11;101976.38;;;6.20
81657;BMP280;71067;51.482;-0.580;2023-12-14T09:41:37;101974.88;;;6.15
81657;BMP280;71067;51.482;-0.580;2023-12-14T09:44:04;101975.44;;;6.21
81657;BMP280;71067;51.482;-0.580;2023-12-14T09:46:31;101972.88;;;6.21
81657;BMP280;71067;51.482;-0.580;2023-12-14T09:48:59;101968.56;;;6.21
81657;BMP280;71067;51.482;-0.580;2023-12-14T09:51:25;101972.47;;;6.27
81657;BMP280;71067;51.482;-0.580;2023-12-14T09:53:52;101970.63;;;6.29
81657;BMP280;71067;51.482;-0.580;2023-12-14T09:56:26;101967.59;;;6.36
81657;BMP280;71067;51.482;-0.580;2023-12-14T09:58:51;101975.81;;;6.41
81657;BMP280;71067;51.482;-0.580;2023-12-14T10:01:24;101970.28;;;6.47
81657;BMP280;71067;51.482;-0.580;2023-12-14T10:03:50;101976.97;;;6.50
81657;BMP280;71067;51.482;-0.580;2023-12-14T10:06:19;101983.91;;;6.49
81657;BMP280;71067;51.482;-0.580;2023-12-14T10:08:55;101990.59;;;6.52
81657;BMP280;71067;51.482;-0.580;2023-12-14T10:11:21;101980.38;;;6.50
81657;BMP280;71067;51.482;-0.580;2023-12-14T10:13:47;101986.75;;;6.57
81657;BMP280;71067;51.482;-0.580;2023-12-14T10:16:12;101979.88;;;6.58
81657;BMP280;71067;51.482;-0.580;2023-12-14T10:18:38;101981.72;;;6.56
81657;BMP280;71067;51.482;-0.580;2023-12-14T10:21:06;102000.25;;;6.61
81657;BMP280;71067;51.482;-0.580;2023-12-14T10:23:33;101998.41;;;6.63
81657;BMP280;71067;51.482;-0.580;2023-12-14T10:25:59;101989.97;;;6.61
81657;BMP280;71067;51.482;-0.580;2023-12-14T10:28:26;101990.47;;;6.66
81657;BMP280;71067;51.482;-0.580;2023-12-14T10:30:52;101986.16;;;6.66
81657;BMP280;71067;51.482;-0.580;2023-12-14T10:33:17;101984.41;;;6.67
81657;BMP280;71067;51.482;-0.580;2023-12-14T10:35:42;101966.63;;;6.64
81657;BMP280;71067;51.482;-0.580;2023-12-14T10:38:15;101992.03;;;6.81
81657;BMP280;71067;51.482;-0.580;2023-12-14T10:40:40;101989.91;;;6.87
81657;BMP280;71067;51.482;-0.580;2023-12-14T10:43:10;101995.91;;;6.88
81657;BMP280;71067;51.482;-0.580;2023-12-14T10:45:36;101978.97;;;6.84
81657;BMP280;71067;51.482;-0.580;2023-12-14T10:48:03;101993.41;;;6.99
81657;BMP280;71067;51.482;-0.580;2023-12-14T10:50:29;101993.72;;;7.07
81657;BMP280;71067;51.482;-0.580;2023-12-14T10:52:56;101996.81;;;7.12
81657;BMP280;71067;51.482;-0.580;2023-12-14T10:55:29;101997.56;;;7.14
81657;BMP280;71067;51.482;-0.580;2023-12-14T10:57:59;101990.53;;;7.16
81657;BMP280;71067;51.482;-0.580;2023-12-14T11:00:26;102006.38;;;7.23
81657;BMP280;71067;51.482;-0.580;2023-12-14T11:02:51;101993.50;;;7.23
81657;BMP280;71067;51.482;-0.580;2023-12-14T11:05:18;101994.16;;;7.26
81657;BMP280;71067;51.482;-0.580;2023-12-14T11:07:50;102003.91;;;7.34
81657;BMP280;71067;51.482;-0.580;2023-12-14T11:10:21;101985.59;;;7.26
81657;BMP280;71067;51.482;-0.580;2023-12-14T11:13:03;101985.06;;;7.33
81657;BMP280;71067;51.482;-0.580;2023-12-14T11:15:33;101985.81;;;7.35
81657;BMP280;71067;51.482;-0.580;2023-12-14T11:23:17;101981.47;;;7.48
81657;BMP280;71067;51.482;-0.580;2023-12-14T11:25:43;101983.09;;;7.49
81657;BMP280;71067;51.482;-0.580;2023-12-14T11:28:10;101966.00;;;7.48
81657;BMP280;71067;51.482;-0.580;2023-12-14T11:30:36;101971.44;;;7.56
81657;BMP280;71067;51.482;-0.580;2023-12-14T11:33:02;101958.75;;;7.53
81657;BMP280;71067;51.482;-0.580;2023-12-14T11:35:27;101962.13;;;7.66
81657;BMP280;71067;51.482;-0.580;2023-12-14T11:37:53;101970.38;;;7.72
81657;BMP280;71067;51.482;-0.580;2023-12-14T11:40:18;101957.50;;;7.72
81657;BMP280;71067;51.482;-0.580;2023-12-14T11:43:00;101960.63;;;7.75
81657;BMP280;71067;51.482;-0.580;2023-12-14T11:45:26;101964.53;;;7.81
81657;BMP280;71067;51.482;-0.580;2023-12-14T11:47:52;101961.72;;;7.84
81657;BMP280;71067;51.482;-0.580;2023-12-14T11:50:17;101959.66;;;7.89
81657;BMP280;71067;51.482;-0.580;2023-12-14T11:52:43;101959.47;;;7.92
81657;BMP280;71067;51.482;-0.580;2023-12-14T11:55:12;101950.81;;;7.93
81657;BMP280;71067;51.482;-0.580;2023-12-14T11:57:37;101934.00;;;7.87
81657;BMP280;71067;51.482;-0.580;2023-12-14T12:00:04;101959.59;;;8.01
81657;BMP280;71067;51.482;-0.580;2023-12-14T12:02:29;101956.59;;;8.07
81657;BMP280;71067;51.482;-0.580;2023-12-14T12:04:55;101963.06;;;8.13
81657;BMP280;71067;51.482;-0.580;2023-12-14T12:07:20;101951.69;;;8.15
81657;BMP280;71067;51.482;-0.580;2023-12-14T12:09:46;101949.00;;;8.17
81657;BMP280;71067;51.482;-0.580;2023-12-14T12:12:12;101952.19;;;8.20
81657;BMP280;71067;51.482;-0.580;2023-12-14T12:14:39;101957.72;;;8.27
81657;BMP280;71067;51.482;-0.580;2023-12-14T12:17:05;101958.44;;;8.29
81657;BMP280;71067;51.482;-0.580;2023-12-14T12:19:35;101961.53;;;8.34
81657;BMP280;71067;51.482;-0.580;2023-12-14T12:22:00;101950.38;;;8.33
81657;BMP280;71067;51.482;-0.580;2023-12-14T12:24:26;101947.69;;;8.35
81657;BMP280;71067;51.482;-0.580;2023-12-14T12:26:51;101940.63;;;8.37
81657;BMP280;71067;51.482;-0.580;2023-12-14T12:29:16;101938.63;;;8.40
81657;BMP280;71067;51.482;-0.580;2023-12-14T12:31:42;101931.41;;;8.45
81657;BMP280;71067;51.482;-0.580;2023-12-14T12:34:08;101939.50;;;8.52
81657;BMP280;71067;51.482;-0.580;2023-12-14T12:36:33;101922.03;;;8.44
81657;BMP280;71067;51.482;-0.580;2023-12-14T12:38:59;101935.31;;;8.62
81657;BMP280;71067;51.482;-0.580;2023-12-14T12:41:24;101932.50;;;8.65
81657;BMP280;71067;51.482;-0.580;2023-12-14T12:43:49;101923.69;;;8.68
81657;BMP280;71067;51.482;-0.580;2023-12-14T12:46:15;101922.63;;;8.70
81657;BMP280;71067;51.482;-0.580;2023-12-14T12:48:40;101927.59;;;8.73
81657;BMP280;71067;51.482;-0.580;2023-12-14T12:51:06;101924.53;;;8.79
81657;BMP280;71067;51.482;-0.580;2023-12-14T12:53:31;101929.34;;;8.84
81657;BMP280;71067;51.482;-0.580;2023-12-14T12:55:58;101931.94;;;8.84
81657;BMP280;71067;51.482;-0.580;2023-12-14T12:58:26;101930.72;;;8.88
81657;BMP280;71067;51.482;-0.580;2023-12-14T13:00:53;101940.75;;;8.92
81657;BMP280;71067;51.482;-0.580;2023-12-14T13:03:18;101938.63;;;8.97
81657;BMP280;71067;51.482;-0.580;2023-12-14T13:05:44;101935.81;;;9.00
81657;BMP280;71067;51.482;-0.580;2023-12-14T13:08:10;101926.41;;;8.99
81657;BMP280;71067;51.482;-0.580;2023-12-14T13:10:35;101936.38;;;9.04
81657;BMP280;71067;51.482;-0.580;2023-12-14T13:13:03;101934.25;;;9.09
81657;BMP280;71067;51.482;-0.580;2023-12-14T13:15:32;101926.41;;;9.10
81657;BMP280;71067;51.482;-0.580;2023-12-14T13:17:57;101928.63;;;9.15
81657;BMP280;71067;51.482;-0.580;2023-12-14T13:20:23;101927.34;;;9.20
81657;BMP280;71067;51.482;-0.580;2023-12-14T13:22:49;101933.88;;;9.24
81657;BMP280;71067;51.482;-0.580;2023-12-14T13:25:15;101942.94;;;9.30
81657;BMP280;71067;51.482;-0.580;2023-12-14T13:27:40;101932.72;;;9.28
81657;BMP280;71067;51.482;-0.580;2023-12-14T13:30:07;101944.44;;;9.32
81657;BMP280;71067;51.482;-0.580;2023-12-14T13:32:33;101961.16;;;9.40
81657;BMP280;71067;51.482;-0.580;2023-12-14T13:34:58;101948.91;;;9.42
81657;BMP280;71067;51.482;-0.580;2023-12-14T13:37:24;101955.59;;;9.44
81657;BMP280;71067;51.482;-0.580;2023-12-14T13:39:50;101953.72;;;9.46
81657;BMP280;71067;51.482;-0.580;2023-12-14T13:42:18;101953.59;;;9.48
81657;BMP280;71067;51.482;-0.580;2023-12-14T13:44:45;101951.84;;;9.48
81657;BMP280;71067;51.482;-0.580;2023-12-14T13:47:11;101966.03;;;9.54
81657;BMP280;71067;51.482;-0.580;2023-12-14T13:49:36;101972.63;;;9.58
81657;BMP280;71067;51.482;-0.580;2023-12-14T13:52:03;101959.34;;;9.51
81657;BMP280;71067;51.482;-0.580;2023-12-14T13:54:29;101970.97;;;9.57